Time;durP1;ratioP1;P1;durP2;ratioP2;P2;SDS_P1;SDS_P2;PMS_P1;PMS_P2;Temp;Humidity;BMP_temperature;BMP_pressure;BME280_temperature;BME280_humidity;BME280_pressure;Samples;Min_cycle;Max_cycle;Signal;HPM_P1;HPM_P2
2023/12/23 00:01:17;;;;;;;16.30;3.10;;;5.20;99.90;;;;;;5105692;28;20384;-76
2023/12/23 00:03:43;;;;;;;18.38;2.08;;;5.20;99.90;;;;;;5104711;28;20073;-75
2023/12/23 00:06:09;;;;;;;16.67;3.00;;;5.20;99.90;;;;;;5105086;28;20459;-76
2023/12/23 00:08:35;;;;;;;9.25;2.20;;;5.20;99.90;;;;;;5100481;28;20051;-76
2023/12/23 00:11:01;;;;;;;10.50;2.10;;;5.20;99.90;;;;;;5131235;27;20394;-75
2023/12/23 00:13:26;;;;;;;11.43;1.60;;;5.20;99.90;;;;;;5102354;28;20393;-75
2023/12/23 00:15:52;;;;;;;10.52;1.75;;;5.10;99.90;;;;;;5144738;27;20039;-76
2023/12/23 00:18:18;;;;;;;16.63;1.85;;;5.10;99.90;;;;;;5111969;28;20043;-76
2023/12/23 00:20:43;;;;;;;14.00;2.60;;;5.00;99.90;;;;;;5094485;28;20055;-76
2023/12/23 00:23:11;;;;;;;15.18;2.17;;;5.00;99.90;;;;;;5132858;27;20115;-76
2023/12/23 00:25:36;;;;;;;12.32;2.03;;;4.90;99.90;;;;;;5115946;27;20035;-76
2023/12/23 00:28:03;;;;;;;12.27;2.13;;;4.90;99.90;;;;;;5129253;27;20047;-76
2023/12/23 00:30:28;;;;;;;14.55;2.55;;;4.80;99.90;;;;;;5092590;28;20040;-76
2023/12/23 00:32:54;;;;;;;10.27;2.38;;;4.90;99.90;;;;;;5095772;28;20425;-76
2023/12/23 00:35:20;;;;;;;14.75;2.60;;;4.80;99.90;;;;;;5115867;27;20031;-76
2023/12/23 00:37:46;;;;;;;12.85;2.58;;;4.80;99.90;;;;;;5113742;28;20048;-76
2023/12/23 00:40:12;;;;;;;19.17;2.80;;;4.90;99.90;;;;;;5113470;27;20395;-76
2023/12/23 00:42:38;;;;;;;14.65;2.45;;;4.80;99.90;;;;;;5113347;28;20047;-76
2023/12/23 00:45:04;;;;;;;18.88;2.60;;;4.90;99.90;;;;;;5120722;27;20043;-76
2023/12/23 00:47:30;;;;;;;15.60;2.20;;;4.90;99.90;;;;;;5118398;27;20175;-76
2023/12/23 00:49:56;;;;;;;12.18;2.78;;;4.90;99.90;;;;;;5121479;27;20090;-76
2023/12/23 00:52:22;;;;;;;15.73;2.67;;;5.00;99.90;;;;;;5116654;27;20046;-76
2023/12/23 00:54:48;;;;;;;;;;;4.90;99.90;;;;;;5113398;28;20092;-76
2023/12/23 00:57:13;;;;;;;17.95;2.95;;;5.00;99.90;;;;;;5113556;28;19920;-76
2023/12/23 00:59:39;;;;;;;15.98;2.60;;;5.00;99.90;;;;;;5096205;27;20471;-76
2023/12/23 01:02:05;;;;;;;18.73;3.00;;;5.00;99.90;;;;;;5100740;27;20487;-76
2023/12/23 01:04:30;;;;;;;22.85;2.92;;;5.10;99.90;;;;;;5076000;28;20048;-75
2023/12/23 01:06:56;;;;;;;14.63;3.05;;;5.10;99.90;;;;;;5109637;27;20044;-75
2023/12/23 01:09:22;;;;;;;16.52;2.42;;;5.10;99.90;;;;;;5091618;27;20036;-75
2023/12/23 01:11:47;;;;;;;21.70;2.70;;;5.10;99.90;;;;;;5108288;28;20055;-75
2023/12/23 01:14:13;;;;;;;19.90;3.05;;;5.20;99.90;;;;;;5126704;27;20114;-76
2023/12/23 01:16:39;;;;;;;20.92;3.03;;;5.30;99.90;;;;;;5125355;27;20031;-76
2023/12/23 01:19:05;;;;;;;16.80;2.60;;;5.30;99.90;;;;;;5097031;27;20382;-75
2023/12/23 01:21:30;;;;;;;21.05;2.65;;;5.40;99.90;;;;;;5101200;28;20048;-76
2023/12/23 01:23:56;;;;;;;14.60;2.60;;;5.50;99.90;;;;;;5142441;27;20050;-76
2023/12/23 01:26:22;;;;;;;13.95;2.45;;;5.70;99.90;;;;;;5120560;27;20039;-76
2023/12/23 01:28:47;;;;;;;16.77;2.97;;;5.80;99.90;;;;;;5104771;27;20040;-77
2023/12/23 01:31:13;;;;;;;15.02;2.17;;;5.70;99.90;;;;;;5116496;27;20368;-77
2023/12/23 01:33:39;;;;;;;10.68;2.10;;;5.80;99.90;;;;;;5075931;28;20063;-77
2023/12/23 01:36:05;;;;;;;15.25;2.30;;;5.80;99.90;;;;;;5091614;28;20119;-77
2023/12/23 01:38:33;;;;;;;19.25;2.30;;;5.90;99.90;;;;;;5092155;28;20479;-77
2023/12/23 01:40:59;;;;;;;13.80;1.77;;;5.90;99.90;;;;;;5099511;28;20044;-77
2023/12/23 01:43:24;;;;;;;14.73;2.38;;;5.90;99.90;;;;;;5111711;28;20398;-77
2023/12/23 01:45:55;;;;;;;14.30;2.40;;;6.00;99.90;;;;;;5105540;28;20052;-77
2023/12/23 01:48:22;;;;;;;9.43;1.63;;;6.00;99.90;;;;;;5091397;28;20051;-77
2023/12/23 01:50:50;;;;;;;7.75;1.65;;;6.00;99.90;;;;;;5094567;27;20043;-76
2023/12/23 01:53:16;;;;;;;15.95;2.53;;;6.10;99.90;;;;;;5112696;27;20088;-77
2023/12/23 01:55:43;;;;;;;12.63;2.55;;;6.10;99.90;;;;;;5125003;27;20092;-77
2023/12/23 01:58:09;;;;;;;13.23;1.67;;;6.10;99.90;;;;;;5088758;28;20155;-76
2023/12/23 02:00:35;;;;;;;13.02;1.98;;;6.20;99.90;;;;;;5109820;27;20559;-76
2023/12/23 02:03:02;;;;;;;10.23;2.03;;;6.20;99.90;;;;;;5111458;27;20487;-77
2023/12/23 02:05:28;;;;;;;10.52;1.98;;;6.20;99.90;;;;;;5106230;28;20059;-76
2023/12/23 02:07:54;;;;;;;9.95;1.75;;;6.20;99.90;;;;;;5117972;27;20047;-77
2023/12/23 02:10:20;;;;;;;10.60;1.88;;;6.20;99.90;;;;;;5112675;28;20394;-77
2023/12/23 02:13:15;;;;;;;9.75;1.60;;;6.20;99.90;;;;;;5116756;27;20267;-76
2023/12/23 02:15:45;;;;;;;12.55;2.35;;;6.20;99.90;;;;;;5094260;27;20502;-77
2023/12/23 02:18:11;;;;;;;12.43;2.10;;;6.20;99.90;;;;;;5115600;27;20039;-77
2023/12/23 02:20:37;;;;;;;14.23;2.88;;;6.20;99.90;;;;;;5139535;27;20806;-77
2023/12/23 02:23:03;;;;;;;15.23;2.85;;;6.20;99.90;;;;;;5112138;27;20048;-77
2023/12/23 02:25:29;;;;;;;14.75;2.08;;;6.20;99.90;;;;;;5119874;27;20086;-77
2023/12/23 02:27:58;;;;;;;16.48;2.33;;;6.20;99.90;;;;;;5099936;28;20051;-77
2023/12/23 02:30:25;;;;;;;14.00;2.10;;;6.20;99.90;;;;;;5111046;28;20106;-77
2023/12/23 02:32:51;;;;;;;;;;;6.10;99.90;;;;;;5095299;27;20043;-77
2023/12/23 02:35:16;;;;;;;11.75;2.03;;;6.10;99.90;;;;;;5115112;27;19972;-76
2023/12/23 02:37:42;;;;;;;16.23;2.53;;;6.20;99.90;;;;;;5127431;27;20752;-77
2023/12/23 02:40:08;;;;;;;11.68;1.90;;;6.10;99.90;;;;;;5094210;28;20039;-76
2023/12/23 02:42:34;;;;;;;9.70;1.70;;;6.10;99.90;;;;;;5111647;27;20079;-76
2023/12/23 02:45:00;;;;;;;16.45;2.55;;;6.00;99.90;;;;;;5131757;27;20552;-76
2023/12/23 02:47:25;;;;;;;18.35;2.30;;;6.00;99.90;;;;;;5115560;27;20063;-73
2023/12/23 02:49:51;;;;;;;8.38;1.85;;;6.00;99.90;;;;;;5110472;27;20063;-73
2023/12/23 02:52:17;;;;;;;12.77;1.98;;;6.00;99.90;;;;;;5129863;27;20042;-73
2023/12/23 02:54:42;;;;;;;12.90;1.77;;;5.90;99.90;;;;;;5114660;27;20081;-72
2023/12/23 02:57:08;;;;;;;10.55;1.40;;;5.80;99.90;;;;;;5091584;27;20047;-72
2023/12/23 02:59:34;;;;;;;10.60;2.85;;;5.80;99.90;;;;;;5117206;27;20050;-72
2023/12/23 03:01:59;;;;;;;11.48;2.22;;;5.80;99.90;;;;;;5108823;27;20075;-72
2023/12/23 03:04:25;;;;;;;16.50;1.77;;;5.60;99.90;;;;;;5120402;27;20490;-72
2023/12/23 03:06:50;;;;;;;10.93;1.55;;;5.70;99.90;;;;;;5110895;27;20256;-72
2023/12/23 03:09:16;;;;;;;15.02;2.00;;;5.60;99.90;;;;;;5104181;27;20058;-72
2023/12/23 03:11:42;;;;;;;6.82;1.13;;;5.60;99.90;;;;;;5110066;28;20094;-72
2023/12/23 03:14:07;;;;;;;8.18;1.63;;;5.50;99.90;;;;;;5115709;27;20092;-72
2023/12/23 03:16:36;;;;;;;7.57;1.70;;;5.50;99.90;;;;;;5116496;27;20386;-71
2023/12/23 03:19:03;;;;;;;12.52;1.50;;;5.50;99.90;;;;;;5113738;27;20039;-73
2023/12/23 03:21:29;;;;;;;11.90;1.48;;;5.40;99.90;;;;;;5122906;27;20708;-72
2023/12/23 03:23:55;;;;;;;10.93;1.73;;;5.40;99.90;;;;;;5094166;27;20473;-72
2023/12/23 03:26:21;;;;;;;9.95;1.55;;;5.40;99.90;;;;;;5123335;27;20123;-71
2023/12/23 03:28:47;;;;;;;5.50;1.05;;;5.30;99.90;;;;;;5122201;27;20039;-71
2023/12/23 03:31:12;;;;;;;6.32;1.10;;;5.30;99.90;;;;;;5093693;28;20482;-72
2023/12/23 03:33:39;;;;;;;8.60;1.48;;;5.40;99.90;;;;;;5106040;28;20036;-72
2023/12/23 03:36:05;;;;;;;10.00;1.98;;;5.40;99.90;;;;;;5110887;27;20027;-72
2023/12/23 03:38:31;;;;;;;15.43;1.70;;;5.40;99.90;;;;;;5110265;28;20043;-72
2023/12/23 03:40:57;;;;;;;8.90;1.15;;;5.30;99.90;;;;;;5096477;28;20230;-71
2023/12/23 03:43:22;;;;;;;11.90;1.65;;;5.30;99.90;;;;;;5110469;28;20087;-71
2023/12/23 03:45:48;;;;;;;10.93;1.35;;;5.40;99.90;;;;;;5092227;28;20628;-71
2023/12/23 03:48:14;;;;;;;7.13;1.02;;;5.20;99.90;;;;;;5123368;27;20094;-71
2023/12/23 03:50:40;;;;;;;10.07;1.67;;;5.20;99.90;;;;;;5089653;28;20032;-70
2023/12/23 03:53:05;;;;;;;3.83;0.88;;;5.30;99.90;;;;;;5088920;28;20063;-71
2023/12/23 03:55:32;;;;;;;8.77;1.50;;;5.20;99.90;;;;;;5102225;28;20049;-70
2023/12/23 03:58:02;;;;;;;4.07;0.98;;;5.30;99.90;;;;;;5100442;28;20043;-70
2023/12/23 04:00:28;;;;;;;6.25;1.15;;;5.30;99.90;;;;;;5103915;28;20067;-70
2023/12/23 04:02:54;;;;;;;4.95;1.15;;;5.10;99.90;;;;;;5111147;28;20085;-70
2023/12/23 04:05:20;;;;;;;8.00;1.33;;;5.20;99.90;;;;;;5112068;28;20488;-70
2023/12/23 04:07:50;;;;;;;7.63;1.05;;;5.20;99.90;;;;;;5102218;28;20040;-70
2023/12/23 04:10:19;;;;;;;6.22;0.90;;;5.30;99.90;;;;;;5103099;28;20424;-70
2023/12/23 04:12:44;;;;;;;6.47;0.98;;;5.10;99.90;;;;;;5099903;28;20075;-70
2023/12/23 04:15:10;;;;;;;8.98;1.15;;;5.30;99.90;;;;;;5104527;28;20089;-69
2023/12/23 04:17:39;;;;;;;5.25;1.00;;;5.10;99.90;;;;;;5129587;28;20039;-69
2023/12/23 04:20:06;;;;;;;5.07;0.98;;;5.30;99.90;;;;;;5105575;28;20039;-70
2023/12/23 04:22:31;;;;;;;6.38;0.95;;;5.30;99.90;;;;;;5098255;28;20514;-69
2023/12/23 04:24:57;;;;;;;8.13;1.15;;;5.10;99.90;;;;;;5144270;27;20115;-69
2023/12/23 04:27:22;;;;;;;5.20;1.00;;;5.30;99.90;;;;;;5135667;27;20050;-69
2023/12/23 04:29:48;;;;;;;4.93;0.95;;;5.30;99.90;;;;;;5143636;27;20043;-70
2023/12/23 04:32:14;;;;;;;5.32;0.80;;;5.10;99.90;;;;;;5109928;28;20557;-69
2023/12/23 04:34:39;;;;;;;6.28;1.13;;;5.20;99.90;;;;;;5110021;28;20085;-70
2023/12/23 04:37:05;;;;;;;6.00;1.10;;;5.10;99.90;;;;;;5105962;28;20035;-70
2023/12/23 04:39:31;;;;;;;5.57;0.82;;;5.10;99.90;;;;;;5130176;28;20043;-70
2023/12/23 04:41:56;;;;;;;5.43;1.23;;;5.00;99.90;;;;;;5093937;28;20131;-70
2023/12/23 04:44:22;;;;;;;3.47;0.80;;;5.00;99.90;;;;;;5092112;28;20043;-70
2023/12/23 04:46:49;;;;;;;3.03;0.57;;;5.20;99.90;;;;;;5145772;27;20654;-70
2023/12/23 04:49:16;;;;;;;1.75;0.63;;;5.00;99.90;;;;;;5094669;28;20044;-70
2023/12/23 04:51:44;;;;;;;3.22;0.50;;;4.90;99.90;;;;;;5107241;28;20050;-70
2023/12/23 04:54:11;;;;;;;2.58;0.50;;;5.20;99.90;;;;;;5113909;28;20039;-70
2023/12/23 04:56:37;;;;;;;2.60;0.70;;;5.30;99.90;;;;;;5111843;27;20513;-70
2023/12/23 04:59:03;;;;;;;4.13;0.60;;;5.00;99.90;;;;;;5116961;27;20079;-70
2023/12/23 05:01:29;;;;;;;3.00;0.60;;;5.00;99.90;;;;;;5119366;27;20501;-76
2023/12/23 05:03:55;;;;;;;1.88;0.40;;;5.20;99.90;;;;;;5112505;27;20047;-76
2023/12/23 05:06:21;;;;;;;2.67;0.50;;;5.00;99.90;;;;;;5111478;27;20043;-76
2023/12/23 05:08:47;;;;;;;5.25;1.25;;;5.30;99.90;;;;;;5116850;27;20074;-76
2023/12/23 05:11:13;;;;;;;5.18;0.90;;;5.20;99.90;;;;;;5095114;28;20123;-76
2023/12/23 05:13:39;;;;;;;2.97;0.70;;;5.00;99.90;;;;;;5128118;27;20118;-76
2023/12/23 05:16:05;;;;;;;4.47;1.17;;;5.20;99.90;;;;;;5112509;27;20039;-76
2023/12/23 05:18:30;;;;;;;4.15;0.95;;;5.00;99.90;;;;;;5132847;27;20398;-77
2023/12/23 05:20:56;;;;;;;3.70;0.80;;;5.20;99.90;;;;;;5114416;27;20051;-76
2023/12/23 05:23:22;;;;;;;5.88;1.02;;;5.10;99.90;;;;;;5102231;27;20065;-76
2023/12/23 05:25:48;;;;;;;4.35;0.88;;;5.20;99.90;;;;;;5110347;27;20158;-76
2023/12/23 05:28:13;;;;;;;4.05;0.80;;;5.00;99.90;;;;;;5125320;27;20055;-76
2023/12/23 05:30:39;;;;;;;2.85;0.57;;;5.30;99.90;;;;;;5085906;28;20092;-76
2023/12/23 05:33:05;;;;;;;2.47;0.70;;;5.00;99.90;;;;;;5104139;27;20031;-77
2023/12/23 05:35:31;;;;;;;1.77;0.75;;;5.10;99.90;;;;;;5118042;27;20047;-76
2023/12/23 05:37:56;;;;;;;5.05;0.85;;;5.20;99.90;;;;;;5131823;27;20131;-78
2023/12/23 05:40:22;;;;;;;3.42;0.68;;;5.30;99.90;;;;;;5129323;27;20092;-77
2023/12/23 05:42:48;;;;;;;2.75;1.17;;;5.10;99.90;;;;;;5112730;28;20052;-77
2023/12/23 05:45:14;;;;;;;2.97;0.70;;;5.10;99.90;;;;;;5113465;27;20036;-77
2023/12/23 05:47:42;;;;;;;2.08;0.73;;;5.00;99.90;;;;;;5113504;27;20047;-77
2023/12/23 05:50:09;;;;;;;1.77;0.82;;;5.20;99.90;;;;;;5093733;28;20497;-77
2023/12/23 05:52:35;;;;;;;1.98;0.70;;;5.00;99.90;;;;;;5112262;27;20050;-77
2023/12/23 05:55:01;;;;;;;3.22;0.98;;;5.00;99.90;;;;;;5112263;27;20044;-77
2023/12/23 05:57:26;;;;;;;2.75;0.90;;;5.20;99.90;;;;;;5127466;27;20702;-77
2023/12/23 05:59:52;;;;;;;2.50;0.70;;;5.00;99.90;;;;;;5098122;28;20056;-77
2023/12/23 06:02:18;;;;;;;2.78;0.82;;;4.90;99.90;;;;;;5100976;28;20040;-77
2023/12/23 06:04:44;;;;;;;2.55;0.65;;;5.00;99.90;;;;;;5114020;27;20075;-78
2023/12/23 06:07:10;;;;;;;2.03;0.57;;;5.30;99.90;;;;;;5113387;27;20078;-77
2023/12/23 06:09:36;;;;;;;1.80;0.55;;;4.90;99.90;;;;;;5113213;27;20050;-77
2023/12/23 06:12:02;;;;;;;4.45;0.68;;;5.30;99.90;;;;;;5118798;27;20036;-77
2023/12/23 06:14:28;;;;;;;1.58;0.38;;;4.90;99.90;;;;;;5136670;27;20058;-77
2023/12/23 06:16:53;;;;;;;2.50;0.60;;;5.10;99.90;;;;;;5131900;27;20046;-78
2023/12/23 06:19:19;;;;;;;6.50;1.38;;;5.10;99.90;;;;;;5127618;27;20039;-77
2023/12/23 06:21:46;;;;;;;1.38;0.30;;;4.80;99.90;;;;;;5096255;28;20084;-77
2023/12/23 06:24:15;;;;;;;1.48;0.40;;;5.10;99.90;;;;;;5099877;27;20096;-77
2023/12/23 06:26:41;;;;;;;2.25;0.50;;;5.10;99.90;;;;;;5104071;27;20043;-77
2023/12/23 06:29:06;;;;;;;1.83;0.35;;;4.80;99.90;;;;;;5147369;27;20239;-77
2023/12/23 06:31:33;;;;;;;2.05;0.55;;;4.90;99.90;;;;;;5091146;28;20048;-77
2023/12/23 06:33:59;;;;;;;1.30;0.50;;;4.70;99.90;;;;;;5097834;27;20531;-78
2023/12/23 06:36:25;;;;;;;1.98;0.43;;;5.00;99.90;;;;;;5111671;27;20040;-77
2023/12/23 06:38:50;;;;;;;3.35;0.35;;;4.60;99.90;;;;;;5115953;27;20043;-77
2023/12/23 06:41:16;;;;;;;1.50;0.50;;;5.00;99.90;;;;;;5108256;27;20039;-77
2023/12/23 06:43:42;;;;;;;1.85;0.43;;;4.90;99.90;;;;;;5091010;28;20499;-77
2023/12/23 06:46:11;;;;;;;2.17;0.40;;;4.70;99.90;;;;;;5115550;27;20047;-77
2023/12/23 06:48:37;;;;;;;2.80;0.32;;;4.60;99.90;;;;;;5112392;27;20047;-78
2023/12/23 06:51:04;;;;;;;1.75;0.20;;;4.60;99.90;;;;;;5122287;27;20043;-77
2023/12/23 06:53:30;;;;;;;1.83;0.40;;;4.70;99.90;;;;;;5090879;28;20139;-77
2023/12/23 06:55:55;;;;;;;0.80;0.30;;;4.90;99.90;;;;;;5126940;27;20039;-77
2023/12/23 06:58:28;;;;;;;0.70;0.30;;;4.70;99.90;;;;;;5122071;27;20050;-77
2023/12/23 07:00:54;;;;;;;1.25;0.40;;;4.50;99.90;;;;;;5107563;28;20502;-78
2023/12/23 07:03:20;;;;;;;1.02;0.30;;;4.70;99.90;;;;;;5126872;27;20082;-78
2023/12/23 07:05:45;;;;;;;0.95;0.30;;;4.70;99.90;;;;;;5115348;27;20031;-78
2023/12/23 07:08:11;;;;;;;2.97;0.38;;;4.90;99.90;;;;;;5121244;27;20347;-76
2023/12/23 07:10:37;;;;;;;1.85;0.20;;;4.50;99.90;;;;;;5083063;27;20734;-77
2023/12/23 07:13:03;;;;;;;1.40;0.35;;;4.80;99.90;;;;;;5091747;28;20052;-77
2023/12/23 07:15:28;;;;;;;2.17;0.68;;;4.70;99.90;;;;;;5093669;28;20126;-77
2023/12/23 07:17:54;;;;;;;4.63;1.80;;;4.50;99.90;;;;;;5131082;27;20113;-76
2023/12/23 07:20:20;;;;;;;0.30;0.20;;;4.40;99.90;;;;;;5131197;27;20042;-77
2023/12/23 07:22:45;;;;;;;0.88;0.20;;;4.40;99.90;;;;;;5101490;27;20532;-77
2023/12/23 07:25:11;;;;;;;0.85;0.40;;;4.80;99.90;;;;;;5090176;28;20471;-77
2023/12/23 07:27:37;;;;;;;1.17;0.20;;;4.40;99.90;;;;;;5093863;28;20367;-77
2023/12/23 07:30:03;;;;;;;0.70;0.30;;;4.60;99.90;;;;;;5106027;28;20039;-77
2023/12/23 07:32:29;;;;;;;0.35;0.20;;;4.90;99.90;;;;;;5111762;27;20039;-77
2023/12/23 07:34:54;;;;;;;0.30;0.10;;;4.80;99.90;;;;;;5060618;28;20108;-77
2023/12/23 07:37:20;;;;;;;0.13;0.13;;;4.50;99.90;;;;;;5117935;27;20044;-77
2023/12/23 07:39:46;;;;;;;0.32;0.10;;;4.60;99.90;;;;;;5102186;28;20036;-77
2023/12/23 07:42:12;;;;;;;1.75;0.20;;;4.60;99.90;;;;;;5099731;27;20047;-78
2023/12/23 07:44:38;;;;;;;0.40;0.15;;;4.80;99.90;;;;;;5102702;28;20506;-78
2023/12/23 07:47:05;;;;;;;0.68;0.30;;;4.50;99.90;;;;;;5116016;27;20052;-78
2023/12/23 07:49:32;;;;;;;0.73;0.40;;;4.80;99.90;;;;;;5097406;28;20052;-78
2023/12/23 07:51:58;;;;;;;0.85;0.32;;;4.70;99.90;;;;;;5130772;27;20073;-78
2023/12/23 07:54:24;;;;;;;1.45;0.47;;;4.70;99.90;;;;;;5123224;27;20035;-77
2023/12/23 07:56:50;;;;;;;0.90;0.47;;;4.90;99.90;;;;;;5140427;27;20121;-77
2023/12/23 07:59:16;;;;;;;1.42;0.50;;;4.60;99.90;;;;;;5113042;28;20071;-78
2023/12/23 08:01:45;;;;;;;1.77;0.57;;;5.00;99.90;;;;;;5116166;28;20047;-78
2023/12/23 08:04:12;;;;;;;1.52;0.50;;;4.60;99.90;;;;;;5128753;28;20122;-77
2023/12/23 08:06:38;;;;;;;1.05;0.43;;;4.60;99.90;;;;;;5113502;27;20048;-77
2023/12/23 08:09:04;;;;;;;2.35;0.50;;;4.70;99.90;;;;;;5112523;28;20043;-77
2023/12/23 08:11:30;;;;;;;2.00;0.40;;;4.80;99.90;;;;;;5113642;28;20043;-77
2023/12/23 08:13:55;;;;;;;1.30;0.38;;;4.80;99.90;;;;;;5113917;28;20035;-78
2023/12/23 08:16:21;;;;;;;0.47;0.30;;;4.50;99.90;;;;;;5081874;28;20040;-77
2023/12/23 08:18:47;;;;;;;0.63;0.40;;;4.80;99.90;;;;;;5094338;28;20154;-79
2023/12/23 08:21:12;;;;;;;0.60;0.32;;;5.00;99.90;;;;;;5111105;28;20046;-79
2023/12/23 08:23:38;;;;;;;0.20;0.20;;;4.50;99.90;;;;;;5113065;28;20067;-72
2023/12/23 08:26:04;;;;;;;0.38;0.20;;;4.60;99.90;;;;;;5105486;28;20057;-71
2023/12/23 08:28:30;;;;;;;0.60;0.30;;;4.80;99.90;;;;;;5117344;28;20109;-71
2023/12/23 08:30:55;;;;;;;0.52;0.38;;;4.60;99.90;;;;;;5111072;28;20044;-71
2023/12/23 08:33:21;;;;;;;0.30;0.28;;;4.70;99.90;;;;;;5117976;27;20035;-71
2023/12/23 08:35:47;;;;;;;0.63;0.57;;;5.10;99.90;;;;;;5099987;27;20471;-71
2023/12/23 08:38:13;;;;;;;1.83;0.80;;;4.80;99.90;;;;;;5131741;27;20039;-70
2023/12/23 08:40:38;;;;;;;1.23;0.50;;;5.00;99.90;;;;;;5127812;27;20100;-71
2023/12/23 08:43:04;;;;;;;0.50;0.40;;;5.10;99.90;;;;;;5113347;28;20043;-71
2023/12/23 08:45:30;;;;;;;0.52;0.43;;;4.70;99.90;;;;;;5134101;27;20031;-71
2023/12/23 08:47:56;;;;;;;2.05;0.50;;;4.60;99.90;;;;;;5135126;27;20047;-70
2023/12/23 08:50:22;;;;;;;0.52;0.38;;;5.10;99.90;;;;;;5098454;28;20118;-71
2023/12/23 08:52:48;;;;;;;0.65;0.60;;;5.10;99.90;;;;;;5113193;28;20335;-71
2023/12/23 08:55:14;;;;;;;0.85;0.63;;;4.70;99.90;;;;;;5113115;28;20075;-70
2023/12/23 08:57:40;;;;;;;1.00;0.75;;;4.90;99.90;;;;;;5113218;28;20483;-70
2023/12/23 09:00:07;;;;;;;0.80;0.70;;;5.20;99.90;;;;;;5112498;28;20073;-71
2023/12/23 09:02:33;;;;;;;0.60;0.50;;;4.70;99.90;;;;;;5111580;27;20043;-71
2023/12/23 09:04:59;;;;;;;;;;;5.20;99.90;;;;;;5106365;27;20436;-71
2023/12/23 09:07:25;;;;;;;1.80;0.60;;;5.10;99.90;;;;;;5132300;27;19926;-71
2023/12/23 09:09:51;;;;;;;0.40;0.40;;;5.10;99.90;;;;;;5130262;27;20047;-71
2023/12/23 09:12:19;;;;;;;0.57;0.40;;;5.20;99.90;;;;;;5133045;27;20039;-71
2023/12/23 09:14:50;;;;;;;0.77;0.40;;;4.70;99.90;;;;;;5131004;27;20431;-71
2023/12/23 09:17:16;;;;;;;0.98;0.47;;;4.80;99.90;;;;;;5113172;27;20059;-71
2023/12/23 09:19:42;;;;;;;0.80;0.50;;;4.70;99.90;;;;;;5118848;27;20925;-71
2023/12/23 09:22:08;;;;;;;1.77;0.40;;;4.80;99.90;;;;;;5109478;27;20035;-71
2023/12/23 09:24:34;;;;;;;0.85;0.50;;;5.30;99.90;;;;;;5130709;27;20171;-71
2023/12/23 09:27:00;;;;;;;;;;;4.70;99.90;;;;;;5131768;27;20078;-71
2023/12/23 09:29:26;;;;;;;0.90;0.40;;;5.30;99.90;;;;;;5129837;27;19992;-70
2023/12/23 09:31:51;;;;;;;0.50;0.50;;;4.80;99.90;;;;;;5113084;27;20051;-71
2023/12/23 09:34:17;;;;;;;1.92;0.50;;;4.80;99.90;;;;;;5126136;27;20669;-71
2023/12/23 09:36:43;;;;;;;0.40;0.40;;;5.40;99.90;;;;;;5114817;27;20036;-71
2023/12/23 09:39:08;;;;;;;1.08;0.50;;;4.70;99.90;;;;;;5127228;27;20038;-71
2023/12/23 09:41:34;;;;;;;0.80;0.60;;;5.30;99.90;;;;;;5117035;27;20039;-71
2023/12/23 09:44:00;;;;;;;0.65;0.52;;;5.30;99.90;;;;;;5111508;27;20038;-71
2023/12/23 09:46:27;;;;;;;1.38;0.50;;;5.50;99.90;;;;;;5123680;27;20520;-71
2023/12/23 09:48:52;;;;;;;;;;;5.20;99.90;;;;;;5102423;27;20056;-71
2023/12/23 09:51:20;;;;;;;1.00;0.70;;;4.90;99.90;;;;;;5113844;27;19923;-71
2023/12/23 09:53:49;;;;;;;2.50;1.08;;;5.50;99.90;;;;;;5109927;27;20453;-71
2023/12/23 09:56:15;;;;;;;1.70;1.10;;;5.20;99.90;;;;;;5117826;27;20031;-71
2023/12/23 09:58:44;;;;;;;1.00;0.80;;;5.10;99.90;;;;;;5113923;27;20043;-71
2023/12/23 10:01:10;;;;;;;1.40;0.95;;;5.40;99.90;;;;;;5124989;27;20399;-71
2023/12/23 10:03:35;;;;;;;1.73;0.90;;;5.30;99.90;;;;;;5109969;27;20101;-71
2023/12/23 10:06:01;;;;;;;0.68;0.60;;;4.90;99.90;;;;;;5107554;27;20048;-71
2023/12/23 10:08:28;;;;;;;1.40;0.90;;;5.20;99.90;;;;;;5126715;27;20172;-71
2023/12/23 10:10:53;;;;;;;1.02;0.70;;;5.30;99.90;;;;;;5108697;27;20066;-71
2023/12/23 10:13:20;;;;;;;0.90;0.70;;;5.30;99.90;;;;;;5129849;27;20085;-71
2023/12/23 10:15:46;;;;;;;0.70;0.60;;;4.80;99.90;;;;;;5129316;27;20463;-71
2023/12/23 10:18:12;;;;;;;0.70;0.57;;;5.50;99.90;;;;;;5129593;27;20092;-71
2023/12/23 10:20:38;;;;;;;1.63;0.70;;;5.20;99.90;;;;;;5109685;27;20407;-71
2023/12/23 10:23:04;;;;;;;0.68;0.57;;;5.60;99.90;;;;;;5109443;27;20138;-71
2023/12/23 10:25:30;;;;;;;2.25;0.73;;;5.00;99.90;;;;;;5129615;27;20122;-71
2023/12/23 10:28:01;;;;;;;1.08;0.70;;;5.00;99.90;;;;;;5098119;27;20066;-71
2023/12/23 10:30:31;;;;;;;0.70;0.60;;;4.80;99.90;;;;;;5111471;27;20043;-71
2023/12/23 10:33:02;;;;;;;3.40;0.70;;;5.30;99.90;;;;;;5111668;27;20039;-71
2023/12/23 10:35:32;;;;;;;0.98;0.70;;;5.60;99.90;;;;;;5102650;27;20046;-70
2023/12/23 10:38:01;;;;;;;0.80;0.60;;;5.40;99.90;;;;;;5117769;27;20055;-71
2023/12/23 10:40:28;;;;;;;1.20;0.80;;;5.50;99.90;;;;;;5111011;27;20099;-71
2023/12/23 10:42:58;;;;;;;0.75;0.70;;;5.00;99.90;;;;;;5114828;27;20447;-71
2023/12/23 10:45:24;;;;;;;0.60;0.60;;;5.70;99.90;;;;;;5112057;27;20429;-71
2023/12/23 10:47:52;;;;;;;0.88;0.75;;;5.60;99.90;;;;;;5114205;27;20413;-71
2023/12/23 10:50:18;;;;;;;2.53;0.93;;;5.80;99.90;;;;;;5111232;27;20054;-71
2023/12/23 10:52:44;;;;;;;0.30;0.30;;;5.30;99.90;;;;;;5117051;27;20035;-70
2023/12/23 10:55:11;;;;;;;0.30;0.20;;;5.70;99.90;;;;;;5110945;27;20035;-71
2023/12/23 10:57:39;;;;;;;0.55;0.20;;;5.70;99.90;;;;;;5108097;28;20471;-71
2023/12/23 11:00:05;;;;;;;0.32;0.13;;;5.30;99.90;;;;;;5111056;27;20088;-70
2023/12/23 11:02:35;;;;;;;0.20;0.20;;;5.00;99.90;;;;;;5111804;27;20044;-71
2023/12/23 11:05:05;;;;;;;0.20;0.10;;;5.70;99.90;;;;;;5108238;27;20106;-71
2023/12/23 11:07:45;;;;;;;0.20;0.20;;;5.70;99.90;;;;;;5110884;27;20109;-71
2023/12/23 11:10:13;;;;;;;0.30;0.20;;;5.30;99.90;;;;;;5109847;27;20047;-71
2023/12/23 11:12:39;;;;;;;0.10;0.10;;;5.20;99.90;;;;;;5111561;27;20067;-71
2023/12/23 11:15:05;;;;;;;0.20;0.10;;;5.40;99.90;;;;;;5129037;27;20070;-71
2023/12/23 11:17:31;;;;;;;;;;;5.20;99.90;;;;;;5112533;27;20042;-70
2023/12/23 11:20:01;;;;;;;0.38;0.20;;;5.40;99.90;;;;;;5112716;27;19915;-70
2023/12/23 11:22:37;;;;;;;0.30;0.22;;;5.30;99.90;;;;;;5111031;27;20046;-71
2023/12/23 11:25:03;;;;;;;0.52;0.20;;;5.80;99.90;;;;;;5125618;27;20515;-71
2023/12/23 11:27:36;;;;;;;0.30;0.30;;;5.90;99.90;;;;;;5091240;27;20035;-71
2023/12/23 11:30:10;;;;;;;0.30;0.20;;;5.30;99.90;;;;;;5114647;27;20580;-70
2023/12/23 11:32:43;;;;;;;0.65;0.43;;;5.40;99.90;;;;;;5113661;27;20474;-71
2023/12/23 11:35:13;;;;;;;0.50;0.40;;;5.20;99.90;;;;;;5098577;27;20031;-70
2023/12/23 11:37:52;;;;;;;0.70;0.40;;;5.50;99.90;;;;;;5093158;28;20047;-70
2023/12/23 11:40:20;;;;;;;0.85;0.60;;;5.80;99.90;;;;;;5102453;28;20071;-71
2023/12/23 11:42:47;;;;;;;1.00;0.50;;;6.00;99.90;;;;;;5109990;28;20039;-73
2023/12/23 11:45:14;;;;;;;0.55;0.43;;;5.40;99.90;;;;;;5121140;27;20490;-70
2023/12/23 11:47:40;;;;;;;;;;;5.30;99.90;;;;;;5117943;27;20135;-71
2023/12/23 11:50:07;;;;;;;0.60;0.40;;;5.60;99.90;;;;;;5100941;27;20365;-71
2023/12/23 11:52:36;;;;;;;0.80;0.50;;;6.10;99.90;;;;;;5109318;28;20043;-74
2023/12/23 11:55:03;;;;;;;0.47;0.43;;;6.10;99.90;;;;;;5116750;27;20444;-70
2023/12/23 11:57:30;;;;;;;0.60;0.50;;;5.90;99.90;;;;;;5126166;27;20470;-71
2023/12/23 11:59:58;;;;;;;0.57;0.40;;;5.60;99.90;;;;;;5127338;27;20039;-71
2023/12/23 12:02:24;;;;;;;0.30;0.30;;;5.90;99.90;;;;;;5117718;28;20546;-70
2023/12/23 12:04:50;;;;;;;0.45;0.35;;;6.10;99.90;;;;;;5110309;28;20045;-70
2023/12/23 12:07:17;;;;;;;0.85;0.50;;;6.10;99.90;;;;;;5108741;28;20035;-71
2023/12/23 12:09:43;;;;;;;1.00;0.47;;;5.60;99.90;;;;;;5129614;27;20284;-74
2023/12/23 12:12:09;;;;;;;0.93;0.35;;;5.30;99.90;;;;;;5107545;28;20483;-72
2023/12/23 12:14:35;;;;;;;2.45;0.40;;;5.60;99.90;;;;;;5109161;28;20111;-72
2023/12/23 12:17:00;;;;;;;0.45;0.32;;;5.70;99.90;;;;;;5114056;28;20135;-72
2023/12/23 12:19:26;;;;;;;0.43;0.38;;;5.80;99.90;;;;;;5109658;28;20035;-71
2023/12/23 12:21:52;;;;;;;0.73;0.43;;;6.20;99.90;;;;;;5095749;28;20039;-71
2023/12/23 12:24:17;;;;;;;0.40;0.40;;;6.10;99.90;;;;;;5093243;28;20141;-71
2023/12/23 12:26:44;;;;;;;0.93;0.68;;;6.30;99.90;;;;;;5118124;28;20118;-71
2023/12/23 12:29:09;;;;;;;;;;;6.20;99.90;;;;;;5111476;28;20105;-71
2023/12/23 12:31:37;;;;;;;1.02;0.73;;;5.50;99.90;;;;;;5107800;28;19950;-71
2023/12/23 12:34:02;;;;;;;0.80;0.70;;;6.30;99.90;;;;;;5107479;28;20660;-80
2023/12/23 12:36:28;;;;;;;1.25;0.95;;;6.30;99.90;;;;;;5119537;28;20123;-71
2023/12/23 12:38:54;;;;;;;1.25;0.98;;;6.40;99.90;;;;;;5112460;28;20487;-72
2023/12/23 12:41:19;;;;;;;1.02;0.80;;;6.20;99.90;;;;;;5101529;28;20092;-71
2023/12/23 12:43:45;;;;;;;1.10;1.00;;;6.30;99.90;;;;;;5103205;28;20039;-71
2023/12/23 12:46:14;;;;;;;1.13;1.00;;;6.30;99.90;;;;;;5103126;28;20044;-71
2023/12/23 12:48:40;;;;;;;1.30;1.10;;;6.50;99.90;;;;;;5102844;28;20055;-71
2023/12/23 12:51:06;;;;;;;1.70;1.33;;;5.70;99.90;;;;;;5086610;28;20097;-71
2023/12/23 12:53:31;;;;;;;1.60;1.40;;;5.80;99.90;;;;;;5108260;28;20031;-71